sensor_id;sensor_type;location;lat;lon;timestamp;P1;durP1;ratioP1;P2;durP2;ratioP2
21589;SDS011;10957;50.968;6.828;2023-03-14T00:05:00;3.50;;;3.40;;
21589;SDS011;10957;50.968;6.828;2023-03-14T00:10:08;3.95;;;3.75;;
21589;SDS011;10957;50.968;6.828;2023-03-14T00:15:12;3.00;;;2.90;;
21589;SDS011;10957;50.968;6.828;2023-03-14T00:20:14;3.20;;;3.10;;
21589;SDS011;10957;50.968;6.828;2023-03-14T00:25:15;3.20;;;3.10;;
21589;SDS011;10957;50.968;6.828;2023-03-14T00:30:16;2.97;;;2.88;;
21589;SDS011;10957;50.968;6.828;2023-03-14T00:35:18;3.10;;;3.00;;
21589;SDS011;10957;50.968;6.828;2023-03-14T00:40:20;3.30;;;3.20;;
21589;SDS011;10957;50.968;6.828;2023-03-14T00:45:23;3.10;;;3.00;;
21589;SDS011;10957;50.968;6.828;2023-03-14T00:50:24;3.22;;;3.13;;
21589;SDS011;10957;50.968;6.828;2023-03-14T00:55:25;3.63;;;3.53;;
21589;SDS011;10957;50.968;6.828;2023-03-14T01:00:27;3.90;;;3.80;;
21589;SDS011;10957;50.968;6.828;2023-03-14T01:05:28;3.88;;;3.78;;
21589;SDS011;10957;50.968;6.828;2023-03-14T01:10:30;3.90;;;3.80;;
21589;SDS011;10957;50.968;6.828;2023-03-14T01:15:33;3.60;;;3.40;;
21589;SDS011;10957;50.968;6.828;2023-03-14T01:20:36;4.13;;;3.22;;
21589;SDS011;10957;50.968;6.828;2023-03-14T01:25:40;3.17;;;3.08;;
21589;SDS011;10957;50.968;6.828;2023-03-14T01:30:43;3.00;;;2.90;;
21589;SDS011;10957;50.968;6.828;2023-03-14T01:35:44;3.28;;;3.17;;
21589;SDS011;10957;50.968;6.828;2023-03-14T01:40:45;3.10;;;3.00;;
21589;SDS011;10957;50.968;6.828;2023-03-14T01:51:16;3.20;;;3.10;;
21589;SDS011;10957;50.968;6.828;2023-03-14T01:56:40;3.20;;;3.10;;
21589;SDS011;10957;50.968;6.828;2023-03-14T02:01:45;3.17;;;3.08;;
21589;SDS011;10957;50.968;6.828;2023-03-14T02:06:57;2.90;;;2.80;;
21589;SDS011;10957;50.968;6.828;2023-03-14T02:12:04;3.90;;;3.60;;
21589;SDS011;10957;50.968;6.828;2023-03-14T02:17:22;3.45;;;3.35;;
21589;SDS011;10957;50.968;6.828;2023-03-14T02:22:35;3.00;;;2.90;;
21589;SDS011;10957;50.968;6.828;2023-03-14T02:27:42;3.97;;;3.78;;
21589;SDS011;10957;50.968;6.828;2023-03-14T02:32:46;3.00;;;2.90;;
21589;SDS011;10957;50.968;6.828;2023-03-14T02:37:52;3.55;;;3.38;;
21589;SDS011;10957;50.968;6.828;2023-03-14T02:43:06;3.00;;;2.90;;
21589;SDS011;10957;50.968;6.828;2023-03-14T02:48:11;3.10;;;3.00;;
21589;SDS011;10957;50.968;6.828;2023-03-14T02:53:24;3.20;;;3.10;;
21589;SDS011;10957;50.968;6.828;2023-03-14T02:58:30;3.42;;;3.33;;
21589;SDS011;10957;50.968;6.828;2023-03-14T03:03:40;3.40;;;3.30;;
21589;SDS011;10957;50.968;6.828;2023-03-14T03:08:41;3.30;;;3.20;;
21589;SDS011;10957;50.968;6.828;2023-03-14T03:13:42;3.17;;;3.08;;
21589;SDS011;10957;50.968;6.828;2023-03-14T03:18:44;3.38;;;3.28;;
21589;SDS011;10957;50.968;6.828;2023-03-14T03:23:45;3.30;;;3.20;;
21589;SDS011;10957;50.968;6.828;2023-03-14T03:28:46;3.35;;;3.25;;
21589;SDS011;10957;50.968;6.828;2023-03-14T03:33:49;3.40;;;3.30;;
21589;SDS011;10957;50.968;6.828;2023-03-14T03:38:51;3.22;;;3.13;;
21589;SDS011;10957;50.968;6.828;2023-03-14T03:43:52;3.20;;;3.10;;
21589;SDS011;10957;50.968;6.828;2023-03-14T03:48:55;3.40;;;3.30;;
21589;SDS011;10957;50.968;6.828;2023-03-14T03:53:57;3.00;;;2.90;;
21589;SDS011;10957;50.968;6.828;2023-03-14T03:59:04;2.70;;;2.60;;
21589;SDS011;10957;50.968;6.828;2023-03-14T04:04:05;2.70;;;2.60;;
21589;SDS011;10957;50.968;6.828;2023-03-14T04:09:07;3.47;;;3.28;;
21589;SDS011;10957;50.968;6.828;2023-03-14T04:14:20;3.00;;;2.90;;
21589;SDS011;10957;50.968;6.828;2023-03-14T04:19:23;2.60;;;2.50;;
21589;SDS011;10957;50.968;6.828;2023-03-14T04:24:27;2.90;;;2.80;;
21589;SDS011;10957;50.968;6.828;2023-03-14T04:29:30;2.78;;;2.67;;
21589;SDS011;10957;50.968;6.828;2023-03-14T04:34:32;2.80;;;2.70;;
21589;SDS011;10957;50.968;6.828;2023-03-14T04:39:33;2.90;;;2.80;;
21589;SDS011;10957;50.968;6.828;2023-03-14T04:45:00;2.70;;;2.60;;
21589;SDS011;10957;50.968;6.828;2023-03-14T04:50:04;2.70;;;2.60;;
21589;SDS011;10957;50.968;6.828;2023-03-14T04:55:06;2.70;;;2.60;;
21589;SDS011;10957;50.968;6.828;2023-03-14T05:00:07;2.45;;;2.35;;
21589;SDS011;10957;50.968;6.828;2023-03-14T05:05:28;2.50;;;2.40;;
21589;SDS011;10957;50.968;6.828;2023-03-14T05:10:39;2.40;;;2.30;;
21589;SDS011;10957;50.968;6.828;2023-03-14T05:15:49;2.28;;;2.17;;
21589;SDS011;10957;50.968;6.828;2023-03-14T05:21:13;2.30;;;2.20;;
21589;SDS011;10957;50.968;6.828;2023-03-14T05:26:20;2.10;;;2.00;;
21589;SDS011;10957;50.968;6.828;2023-03-14T05:31:41;2.20;;;2.10;;
21589;SDS011;10957;50.968;6.828;2023-03-14T05:36:52;2.10;;;2.00;;
21589;SDS011;10957;50.968;6.828;2023-03-14T05:42:22;2.55;;;2.45;;
21589;SDS011;10957;50.968;6.828;2023-03-14T05:47:26;2.30;;;2.20;;
21589;SDS011;10957;50.968;6.828;2023-03-14T05:52:46;2.75;;;2.65;;
21589;SDS011;10957;50.968;6.828;2023-03-14T05:58:03;2.22;;;2.13;;
21589;SDS011;10957;50.968;6.828;2023-03-14T06:03:23;2.60;;;2.50;;
21589;SDS011;10957;50.968;6.828;2023-03-14T06:08:25;2.30;;;2.20;;
21589;SDS011;10957;50.968;6.828;2023-03-14T06:13:27;2.30;;;2.20;;
21589;SDS011;10957;50.968;6.828;2023-03-14T06:18:28;2.28;;;2.17;;
21589;SDS011;10957;50.968;6.828;2023-03-14T06:23:31;2.50;;;2.40;;
21589;SDS011;10957;50.968;6.828;2023-03-14T06:28:34;2.40;;;2.30;;
21589;SDS011;10957;50.968;6.828;2023-03-14T06:33:38;2.40;;;2.30;;
21589;SDS011;10957;50.968;6.828;2023-03-14T06:38:40;2.30;;;2.20;;
21589;SDS011;10957;50.968;6.828;2023-03-14T06:43:42;2.30;;;2.20;;
21589;SDS011;10957;50.968;6.828;2023-03-14T06:48:44;2.20;;;2.10;;
21589;SDS011;10957;50.968;6.828;2023-03-14T06:53:47;2.33;;;2.22;;
21589;SDS011;10957;50.968;6.828;2023-03-14T06:58:50;2.40;;;2.30;;
21589;SDS011;10957;50.968;6.828;2023-03-14T07:03:54;2.60;;;2.50;;
21589;SDS011;10957;50.968;6.828;2023-03-14T07:08:56;2.55;;;2.45;;
21589;SDS011;10957;50.968;6.828;2023-03-14T07:13:58;2.58;;;2.47;;
21589;SDS011;10957;50.968;6.828;2023-03-14T07:19:00;2.50;;;2.40;;
21589;SDS011;10957;50.968;6.828;2023-03-14T07:24:02;2.50;;;2.40;;
21589;SDS011;10957;50.968;6.828;2023-03-14T07:29:05;2.30;;;2.20;;
21589;SDS011;10957;50.968;6.828;2023-03-14T07:34:08;2.65;;;2.55;;
21589;SDS011;10957;50.968;6.828;2023-03-14T07:39:13;2.70;;;2.60;;
21589;SDS011;10957;50.968;6.828;2023-03-14T07:44:33;2.50;;;2.40;;
21589;SDS011;10957;50.968;6.828;2023-03-14T07:49:34;2.70;;;2.60;;
21589;SDS011;10957;50.968;6.828;2023-03-14T07:54:35;2.70;;;2.60;;
21589;SDS011;10957;50.968;6.828;2023-03-14T07:59:37;2.60;;;2.50;;
21589;SDS011;10957;50.968;6.828;2023-03-14T08:04:38;2.40;;;2.30;;
21589;SDS011;10957;50.968;6.828;2023-03-14T08:09:40;2.30;;;2.20;;
21589;SDS011;10957;50.968;6.828;2023-03-14T08:14:42;3.90;;;3.10;;
21589;SDS011;10957;50.968;6.828;2023-03-14T08:19:43;2.67;;;2.58;;
21589;SDS011;10957;50.968;6.828;2023-03-14T08:24:44;2.38;;;2.28;;
21589;SDS011;10957;50.968;6.828;2023-03-14T08:29:46;2.30;;;2.20;;
21589;SDS011;10957;50.968;6.828;2023-03-14T08:34:47;2.30;;;2.20;;
21589;SDS011;10957;50.968;6.828;2023-03-14T08:39:48;2.22;;;2.13;;
21589;SDS011;10957;50.968;6.828;2023-03-14T08:44:50;2.20;;;2.10;;
21589;SDS011;10957;50.968;6.828;2023-03-14T08:49:52;2.28;;;2.17;;
21589;SDS011;10957;50.968;6.828;2023-03-14T08:54:54;2.50;;;2.40;;
21589;SDS011;10957;50.968;6.828;2023-03-14T08:59:56;2.20;;;2.10;;
21589;SDS011;10957;50.968;6.828;2023-03-14T09:04:57;2.13;;;2.03;;
21589;SDS011;10957;50.968;6.828;2023-03-14T09:09:59;1.80;;;1.80;;
21589;SDS011;10957;50.968;6.828;2023-03-14T09:15:00;2.00;;;1.90;;
21589;SDS011;10957;50.968;6.828;2023-03-14T09:20:02;1.70;;;1.70;;
21589;SDS011;10957;50.968;6.828;2023-03-14T09:25:09;2.00;;;1.90;;
21589;SDS011;10957;50.968;6.828;2023-03-14T09:30:11;2.20;;;2.10;;
21589;SDS011;10957;50.968;6.828;2023-03-14T09:35:13;2.60;;;2.50;;
21589;SDS011;10957;50.968;6.828;2023-03-14T09:40:17;2.50;;;2.40;;
21589;SDS011;10957;50.968;6.828;2023-03-14T09:45:28;2.20;;;2.10;;
21589;SDS011;10957;50.968;6.828;2023-03-14T09:50:37;1.83;;;1.83;;
21589;SDS011;10957;50.968;6.828;2023-03-14T09:55:42;1.80;;;1.80;;
21589;SDS011;10957;50.968;6.828;2023-03-14T10:00:45;2.05;;;1.95;;
21589;SDS011;10957;50.968;6.828;2023-03-14T10:05:46;1.80;;;1.80;;
21589;SDS011;10957;50.968;6.828;2023-03-14T10:10:48;2.10;;;2.00;;
21589;SDS011;10957;50.968;6.828;2023-03-14T10:21:04;1.90;;;1.80;;
21589;SDS011;10957;50.968;6.828;2023-03-14T10:31:13;1.80;;;1.80;;
21589;SDS011;10957;50.968;6.828;2023-03-14T10:36:22;1.80;;;1.80;;
21589;SDS011;10957;50.968;6.828;2023-03-14T10:41:27;1.70;;;1.70;;
21589;SDS011;10957;50.968;6.828;2023-03-14T10:46:32;1.80;;;1.80;;
21589;SDS011;10957;50.968;6.828;2023-03-14T10:51:52;1.52;;;1.52;;
21589;SDS011;10957;50.968;6.828;2023-03-14T10:56:57;1.70;;;1.70;;
21589;SDS011;10957;50.968;6.828;2023-03-14T11:12:37;1.50;;;1.50;;
21589;SDS011;10957;50.968;6.828;2023-03-14T11:23:39;1.40;;;1.40;;
21589;SDS011;10957;50.968;6.828;2023-03-14T11:28:58;2.42;;;2.33;;
21589;SDS011;10957;50.968;6.828;2023-03-14T11:34:16;1.60;;;1.60;;
21589;SDS011;10957;50.968;6.828;2023-03-14T11:39:22;3.10;;;3.00;;
21589;SDS011;10957;50.968;6.828;2023-03-14T11:44:27;2.35;;;2.25;;
21589;SDS011;10957;50.968;6.828;2023-03-14T11:49:46;2.10;;;2.00;;
21589;SDS011;10957;50.968;6.828;2023-03-14T11:55:17;1.92;;;1.83;;
21589;SDS011;10957;50.968;6.828;2023-03-14T12:00:26;1.70;;;1.70;;
21589;SDS011;10957;50.968;6.828;2023-03-14T12:10:43;1.70;;;1.70;;
21589;SDS011;10957;50.968;6.828;2023-03-14T12:15:57;1.40;;;1.40;;
21589;SDS011;10957;50.968;6.828;2023-03-14T12:21:01;1.40;;;1.40;;
21589;SDS011;10957;50.968;6.828;2023-03-14T12:26:06;1.77;;;1.77;;
21589;SDS011;10957;50.968;6.828;2023-03-14T12:36:48;2.53;;;2.42;;
21589;SDS011;10957;50.968;6.828;2023-03-14T12:52:36;2.60;;;2.50;;
21589;SDS011;10957;50.968;6.828;2023-03-14T12:57:55;2.60;;;2.50;;
21589;SDS011;10957;50.968;6.828;2023-03-14T13:03:02;2.70;;;2.60;;
21589;SDS011;10957;50.968;6.828;2023-03-14T13:08:19;2.50;;;2.40;;
21589;SDS011;10957;50.968;6.828;2023-03-14T13:13:45;2.60;;;2.50;;
21589;SDS011;10957;50.968;6.828;2023-03-14T13:19:11;2.80;;;2.70;;
21589;SDS011;10957;50.968;6.828;2023-03-14T13:24:24;2.90;;;2.80;;
21589;SDS011;10957;50.968;6.828;2023-03-14T13:29:30;3.40;;;3.30;;
21589;SDS011;10957;50.968;6.828;2023-03-14T13:34:32;3.95;;;3.75;;
21589;SDS011;10957;50.968;6.828;2023-03-14T13:39:35;3.10;;;3.00;;
21589;SDS011;10957;50.968;6.828;2023-03-14T13:44:40;2.80;;;2.70;;
21589;SDS011;10957;50.968;6.828;2023-03-14T13:49:42;2.65;;;2.55;;
21589;SDS011;10957;50.968;6.828;2023-03-14T13:54:44;3.33;;;3.22;;
21589;SDS011;10957;50.968;6.828;2023-03-14T13:59:45;2.70;;;2.60;;
21589;SDS011;10957;50.968;6.828;2023-03-14T14:05:10;2.80;;;2.70;;
21589;SDS011;10957;50.968;6.828;2023-03-14T14:10:13;2.85;;;2.75;;
21589;SDS011;10957;50.968;6.828;2023-03-14T14:20:27;2.80;;;2.70;;
21589;SDS011;10957;50.968;6.828;2023-03-14T14:25:35;3.97;;;3.72;;
21589;SDS011;10957;50.968;6.828;2023-03-14T14:30:37;3.10;;;3.00;;
21589;SDS011;10957;50.968;6.828;2023-03-14T14:35:39;3.20;;;3.10;;
21589;SDS011;10957;50.968;6.828;2023-03-14T14:40:44;3.20;;;3.10;;
21589;SDS011;10957;50.968;6.828;2023-03-14T14:45:47;2.80;;;2.70;;
21589;SDS011;10957;50.968;6.828;2023-03-14T14:51:03;3.50;;;3.40;;
21589;SDS011;10957;50.968;6.828;2023-03-14T14:56:19;3.30;;;3.20;;
21589;SDS011;10957;50.968;6.828;2023-03-14T15:01:30;3.78;;;3.58;;
21589;SDS011;10957;50.968;6.828;2023-03-14T15:06:40;3.67;;;3.58;;
21589;SDS011;10957;50.968;6.828;2023-03-14T15:11:44;3.33;;;3.22;;
21589;SDS011;10957;50.968;6.828;2023-03-14T15:16:45;3.80;;;3.70;;
21589;SDS011;10957;50.968;6.828;2023-03-14T15:21:46;4.30;;;4.10;;
21589;SDS011;10957;50.968;6.828;2023-03-14T15:26:47;4.10;;;3.90;;
21589;SDS011;10957;50.968;6.828;2023-03-14T15:31:49;4.30;;;4.10;;
21589;SDS011;10957;50.968;6.828;2023-03-14T15:36:50;4.10;;;3.90;;
21589;SDS011;10957;50.968;6.828;2023-03-14T15:41:51;3.85;;;3.75;;
21589;SDS011;10957;50.968;6.828;2023-03-14T15:46:52;4.07;;;3.92;;
21589;SDS011;10957;50.968;6.828;2023-03-14T15:51:54;3.50;;;3.40;;
21589;SDS011;10957;50.968;6.828;2023-03-14T15:56:55;3.40;;;3.30;;
21589;SDS011;10957;50.968;6.828;2023-03-14T16:01:57;3.45;;;3.35;;
21589;SDS011;10957;50.968;6.828;2023-03-14T16:06:58;3.80;;;3.70;;
21589;SDS011;10957;50.968;6.828;2023-03-14T16:11:59;3.50;;;3.40;;
21589;SDS011;10957;50.968;6.828;2023-03-14T16:17:01;3.55;;;3.42;;
21589;SDS011;10957;50.968;6.828;2023-03-14T16:22:02;4.80;;;4.60;;
21589;SDS011;10957;50.968;6.828;2023-03-14T16:27:04;5.30;;;5.10;;
21589;SDS011;10957;50.968;6.828;2023-03-14T16:32:05;5.90;;;5.60;;
21589;SDS011;10957;50.968;6.828;2023-03-14T16:37:07;5.50;;;5.30;;
21589;SDS011;10957;50.968;6.828;2023-03-14T16:42:09;5.80;;;5.50;;
21589;SDS011;10957;50.968;6.828;2023-03-14T16:47:11;5.70;;;5.50;;
21589;SDS011;10957;50.968;6.828;2023-03-14T16:52:12;5.90;;;5.60;;
21589;SDS011;10957;50.968;6.828;2023-03-14T16:57:13;6.00;;;5.70;;
21589;SDS011;10957;50.968;6.828;2023-03-14T17:02:15;5.95;;;5.65;;
21589;SDS011;10957;50.968;6.828;2023-03-14T17:07:16;5.90;;;5.60;;
21589;SDS011;10957;50.968;6.828;2023-03-14T17:12:17;6.40;;;6.10;;
21589;SDS011;10957;50.968;6.828;2023-03-14T17:17:18;6.20;;;5.90;;
21589;SDS011;10957;50.968;6.828;2023-03-14T17:22:19;5.88;;;5.60;;
21589;SDS011;10957;50.968;6.828;2023-03-14T17:27:21;5.70;;;5.50;;
21589;SDS011;10957;50.968;6.828;2023-03-14T17:32:22;5.97;;;5.68;;
21589;SDS011;10957;50.968;6.828;2023-03-14T17:37:23;5.70;;;5.50;;
21589;SDS011;10957;50.968;6.828;2023-03-14T17:42:25;5.93;;;5.65;;
21589;SDS011;10957;50.968;6.828;2023-03-14T17:47:26;5.53;;;5.32;;
21589;SDS011;10957;50.968;6.828;2023-03-14T17:52:27;6.45;;;6.15;;
21589;SDS011;10957;50.968;6.828;2023-03-14T17:57:28;6.70;;;6.40;;
21589;SDS011;10957;50.968;6.828;2023-03-14T18:02:30;6.93;;;6.63;;
21589;SDS011;10957;50.968;6.828;2023-03-14T18:07:34;5.30;;;5.10;;
21589;SDS011;10957;50.968;6.828;2023-03-14T18:12:37;6.17;;;5.87;;
21589;SDS011;10957;50.968;6.828;2023-03-14T18:17:39;5.90;;;5.60;;
21589;SDS011;10957;50.968;6.828;2023-03-14T18:22:40;5.60;;;5.40;;
21589;SDS011;10957;50.968;6.828;2023-03-14T18:27:42;5.90;;;5.60;;
21589;SDS011;10957;50.968;6.828;2023-03-14T18:32:43;6.00;;;5.70;;
21589;SDS011;10957;50.968;6.828;2023-03-14T18:37:44;6.40;;;6.10;;
21589;SDS011;10957;50.968;6.828;2023-03-14T18:42:45;6.10;;;5.80;;
21589;SDS011;10957;50.968;6.828;2023-03-14T18:47:47;5.60;;;5.40;;
21589;SDS011;10957;50.968;6.828;2023-03-14T18:52:49;5.77;;;5.53;;
21589;SDS011;10957;50.968;6.828;2023-03-14T18:57:50;5.90;;;5.60;;
21589;SDS011;10957;50.968;6.828;2023-03-14T19:02:52;5.60;;;5.40;;
21589;SDS011;10957;50.968;6.828;2023-03-14T19:07:54;5.80;;;5.50;;
21589;SDS011;10957;50.968;6.828;2023-03-14T19:12:57;5.67;;;5.47;;
21589;SDS011;10957;50.968;6.828;2023-03-14T19:17:58;5.90;;;5.60;;
21589;SDS011;10957;50.968;6.828;2023-03-14T19:22:59;5.40;;;5.20;;
21589;SDS011;10957;50.968;6.828;2023-03-14T19:28:01;5.60;;;5.40;;
21589;SDS011;10957;50.968;6.828;2023-03-14T19:33:02;5.50;;;5.30;;
21589;SDS011;10957;50.968;6.828;2023-03-14T19:38:03;5.50;;;5.30;;
21589;SDS011;10957;50.968;6.828;2023-03-14T19:43:05;5.30;;;5.10;;
21589;SDS011;10957;50.968;6.828;2023-03-14T19:48:06;5.60;;;5.40;;
21589;SDS011;10957;50.968;6.828;2023-03-14T19:53:10;5.50;;;5.30;;
21589;SDS011;10957;50.968;6.828;2023-03-14T19:58:12;5.60;;;5.40;;
21589;SDS011;10957;50.968;6.828;2023-03-14T20:03:13;5.10;;;4.90;;
21589;SDS011;10957;50.968;6.828;2023-03-14T20:08:14;5.60;;;5.40;;
21589;SDS011;10957;50.968;6.828;2023-03-14T20:13:16;5.27;;;5.07;;
21589;SDS011;10957;50.968;6.828;2023-03-14T20:18:17;5.60;;;5.40;;
21589;SDS011;10957;50.968;6.828;2023-03-14T20:23:18;5.40;;;5.20;;
21589;SDS011;10957;50.968;6.828;2023-03-14T20:28:20;5.40;;;5.20;;
21589;SDS011;10957;50.968;6.828;2023-03-14T20:33:21;5.60;;;5.40;;
21589;SDS011;10957;50.968;6.828;2023-03-14T20:38:23;5.33;;;5.13;;
21589;SDS011;10957;50.968;6.828;2023-03-14T20:43:26;5.40;;;5.20;;
21589;SDS011;10957;50.968;6.828;2023-03-14T20:48:29;5.37;;;5.17;;
21589;SDS011;10957;50.968;6.828;2023-03-14T20:53:31;5.37;;;5.17;;
21589;SDS011;10957;50.968;6.828;2023-03-14T20:58:32;5.40;;;5.20;;
21589;SDS011;10957;50.968;6.828;2023-03-14T21:03:34;5.60;;;5.30;;
21589;SDS011;10957;50.968;6.828;2023-03-14T21:08:35;5.40;;;5.20;;
21589;SDS011;10957;50.968;6.828;2023-03-14T21:13:37;5.60;;;5.40;;
21589;SDS011;10957;50.968;6.828;2023-03-14T21:18:38;5.30;;;5.10;;
21589;SDS011;10957;50.968;6.828;2023-03-14T21:23:39;5.10;;;4.90;;
21589;SDS011;10957;50.968;6.828;2023-03-14T21:28:40;6.20;;;5.90;;
21589;SDS011;10957;50.968;6.828;2023-03-14T21:33:42;5.10;;;4.90;;
21589;SDS011;10957;50.968;6.828;2023-03-14T21:38:43;5.30;;;5.10;;
21589;SDS011;10957;50.968;6.828;2023-03-14T21:43:46;5.33;;;5.13;;
21589;SDS011;10957;50.968;6.828;2023-03-14T21:48:47;5.40;;;5.13;;
21589;SDS011;10957;50.968;6.828;2023-03-14T21:53:48;5.30;;;5.10;;
21589;SDS011;10957;50.968;6.828;2023-03-14T21:58:50;5.00;;;4.80;;
21589;SDS011;10957;50.968;6.828;2023-03-14T22:03:51;5.00;;;4.80;;
21589;SDS011;10957;50.968;6.828;2023-03-14T22:08:53;4.93;;;4.73;;
21589;SDS011;10957;50.968;6.828;2023-03-14T22:13:57;4.90;;;4.70;;
21589;SDS011;10957;50.968;6.828;2023-03-14T22:18:59;4.93;;;4.73;;
21589;SDS011;10957;50.968;6.828;2023-03-14T22:24:01;4.53;;;4.33;;
21589;SDS011;10957;50.968;6.828;2023-03-14T22:29:02;4.60;;;4.40;;
21589;SDS011;10957;50.968;6.828;2023-03-14T22:34:04;4.40;;;4.20;;
21589;SDS011;10957;50.968;6.828;2023-03-14T22:39:05;4.20;;;4.00;;
21589;SDS011;10957;50.968;6.828;2023-03-14T22:44:09;4.63;;;4.43;;
21589;SDS011;10957;50.968;6.828;2023-03-14T22:49:11;4.20;;;4.00;;
21589;SDS011;10957;50.968;6.828;2023-03-14T22:54:14;4.47;;;4.27;;
21589;SDS011;10957;50.968;6.828;2023-03-14T22:59:17;4.30;;;4.10;;
21589;SDS011;10957;50.968;6.828;2023-03-14T23:04:21;4.10;;;3.90;;
21589;SDS011;10957;50.968;6.828;2023-03-14T23:09:23;4.30;;;4.10;;
21589;SDS011;10957;50.968;6.828;2023-03-14T23:14:30;3.80;;;3.70;;
21589;SDS011;10957;50.968;6.828;2023-03-14T23:19:34;3.70;;;3.60;;
21589;SDS011;10957;50.968;6.828;2023-03-14T23:24:39;3.63;;;3.53;;
21589;SDS011;10957;50.968;6.828;2023-03-14T23:29:40;3.50;;;3.40;;
21589;SDS011;10957;50.968;6.828;2023-03-14T23:34:42;3.43;;;3.33;;
21589;SDS011;10957;50.968;6.828;2023-03-14T23:39:44;3.70;;;3.60;;
21589;SDS011;10957;50.968;6.828;2023-03-14T23:44:45;3.50;;;3.40;;
21589;SDS011;10957;50.968;6.828;2023-03-14T23:49:46;3.60;;;3.50;;
21589;SDS011;10957;50.968;6.828;2023-03-14T23:54:48;4.03;;;3.83;;
21589;SDS011;10957;50.968;6.828;2023-03-14T23:59:49;4.10;;;3.90;;
